createdAt,value
2018-07-13T00:00:16.876Z,17.86
2018-07-13T00:01:16.897Z,17.87
2018-07-13T00:02:16.917Z,17.84
2018-07-13T00:03:16.939Z,17.86
2018-07-13T00:04:16.960Z,17.79
2018-07-13T00:05:16.982Z,17.81
2018-07-13T00:06:17.001Z,17.80
2018-07-13T00:07:17.022Z,17.80
2018-07-13T00:08:17.045Z,17.79
2018-07-13T00:09:17.067Z,17.77
2018-07-13T00:10:17.085Z,17.83
2018-07-13T00:11:17.109Z,17.77
2018-07-13T00:12:17.130Z,17.81
2018-07-13T00:13:17.150Z,17.76
2018-07-13T00:14:17.170Z,17.69
2018-07-13T00:15:17.191Z,17.60
2018-07-13T00:16:17.213Z,17.63
2018-07-13T00:17:17.230Z,17.60
2018-07-13T00:18:17.251Z,17.57
2018-07-13T00:19:17.276Z,17.50
2018-07-13T00:20:17.295Z,17.52
2018-07-13T00:21:17.315Z,17.50
2018-07-13T00:22:17.336Z,17.47
2018-07-13T00:23:17.357Z,17.47
2018-07-13T00:24:17.376Z,17.42
2018-07-13T00:25:17.396Z,17.46
2018-07-13T00:26:17.418Z,17.47
2018-07-13T00:27:17.440Z,17.38
2018-07-13T00:28:17.467Z,17.30
2018-07-13T00:29:17.478Z,17.43
2018-07-13T00:30:17.502Z,17.39
2018-07-13T00:31:17.524Z,17.31
2018-07-13T00:32:17.549Z,17.31
2018-07-13T00:33:17.562Z,17.31
2018-07-13T00:34:17.586Z,17.31
2018-07-13T00:35:17.606Z,17.28
2018-07-13T00:36:17.628Z,17.27
2018-07-13T00:37:17.644Z,17.24
2018-07-13T00:38:17.667Z,17.31
2018-07-13T00:39:17.689Z,17.24
2018-07-13T00:40:17.710Z,17.22
2018-07-13T00:41:17.729Z,17.06
2018-07-13T00:42:17.747Z,17.06
2018-07-13T00:43:17.768Z,17.09
2018-07-13T00:44:17.790Z,17.07
2018-07-13T00:45:17.813Z,17.05
2018-07-13T00:46:17.832Z,17.03
2018-07-13T00:47:17.851Z,16.97
2018-07-13T00:48:17.873Z,17.02
2018-07-13T00:49:17.892Z,17.02
2018-07-13T00:50:17.917Z,16.97
2018-07-13T00:51:17.933Z,16.88
2018-07-13T00:52:17.957Z,16.85
2018-07-13T00:53:17.973Z,16.99
2018-07-13T00:54:17.997Z,16.91
2018-07-13T00:55:18.016Z,16.81
2018-07-13T00:56:18.038Z,16.99
2018-07-13T00:57:18.058Z,16.81
2018-07-13T00:58:18.079Z,16.81
2018-07-13T00:59:18.099Z,16.84
2018-07-13T01:00:18.118Z,16.82
2018-07-13T01:01:18.138Z,16.81
2018-07-13T01:02:18.161Z,16.76
2018-07-13T01:03:18.180Z,16.82
2018-07-13T01:04:18.201Z,16.76
2018-07-13T01:05:18.221Z,16.67
2018-07-13T01:06:18.245Z,16.81
2018-07-13T01:07:18.264Z,16.76
2018-07-13T01:08:18.283Z,16.77
2018-07-13T01:09:18.306Z,16.67
2018-07-13T01:10:18.325Z,16.69
2018-07-13T01:11:18.344Z,16.66
2018-07-13T01:12:18.365Z,16.65
2018-07-13T01:13:18.388Z,16.65
2018-07-13T01:14:18.405Z,16.62
2018-07-13T01:15:18.426Z,16.69
2018-07-13T01:16:18.450Z,16.69
2018-07-13T01:17:18.468Z,16.63
2018-07-13T01:18:18.487Z,16.57
2018-07-13T01:19:18.510Z,16.63
2018-07-13T01:20:18.528Z,16.59
2018-07-13T01:21:18.547Z,16.57
2018-07-13T01:22:18.569Z,16.49
2018-07-13T01:23:18.592Z,16.54
2018-07-13T01:24:18.612Z,16.49
2018-07-13T01:25:18.630Z,16.54
2018-07-13T01:26:18.654Z,16.51
2018-07-13T01:27:18.671Z,16.54
2018-07-13T01:28:18.692Z,16.42
2018-07-13T01:29:18.714Z,16.33
2018-07-13T01:30:18.735Z,16.32
2018-07-13T01:31:18.754Z,16.27
2018-07-13T01:32:18.773Z,16.29
2018-07-13T01:33:18.794Z,16.33
2018-07-13T01:34:18.814Z,16.33
2018-07-13T01:35:18.834Z,16.22
2018-07-13T01:36:18.854Z,16.14
2018-07-13T01:37:18.874Z,16.21
2018-07-13T01:38:18.894Z,16.22
2018-07-13T01:39:18.917Z,16.22
2018-07-13T01:40:18.938Z,16.16
2018-07-13T01:41:18.958Z,16.25
2018-07-13T01:42:18.980Z,16.21
2018-07-13T01:43:18.995Z,16.21
2018-07-13T01:44:19.017Z,16.16
2018-07-13T01:45:19.035Z,16.16
2018-07-13T01:46:19.056Z,16.16
2018-07-13T01:47:19.080Z,16.16
2018-07-13T01:48:19.100Z,16.16
2018-07-13T01:49:19.116Z,16.16
2018-07-13T01:50:19.138Z,16.25
2018-07-13T01:51:19.158Z,16.16
2018-07-13T01:52:19.181Z,16.16
2018-07-13T01:53:19.198Z,16.14
2018-07-13T01:54:19.224Z,16.18
2018-07-13T01:55:19.239Z,16.17
2018-07-13T01:56:19.262Z,16.17
2018-07-13T01:57:19.281Z,16.13
2018-07-13T01:58:19.300Z,16.13
2018-07-13T01:59:19.323Z,16.16
2018-07-13T02:00:19.341Z,16.13
2018-07-13T02:01:19.361Z,16.16
2018-07-13T02:02:19.383Z,16.10
2018-07-13T02:03:19.404Z,16.10
2018-07-13T02:04:19.424Z,16.21
2018-07-13T02:05:19.441Z,16.17
2018-07-13T02:06:19.466Z,16.04
2018-07-13T02:07:19.483Z,16.08
2018-07-13T02:08:19.502Z,16.04
2018-07-13T02:09:19.522Z,16.04
2018-07-13T02:10:19.546Z,15.99
2018-07-13T02:11:19.565Z,16.06
2018-07-13T02:12:19.585Z,15.96
2018-07-13T02:13:19.603Z,15.98
2018-07-13T02:14:19.624Z,15.91
2018-07-13T02:15:19.644Z,15.98
2018-07-13T02:16:19.667Z,15.93
2018-07-13T02:17:19.684Z,15.96
2018-07-13T02:18:19.703Z,15.99
2018-07-13T02:19:19.728Z,15.86
2018-07-13T02:20:19.746Z,15.88
2018-07-13T02:21:19.766Z,15.83
2018-07-13T02:22:19.784Z,15.86
2018-07-13T02:23:19.808Z,15.86
2018-07-13T02:24:19.825Z,15.81
2018-07-13T02:25:19.848Z,15.89
2018-07-13T02:26:19.866Z,15.78
2018-07-13T02:27:19.886Z,15.91
2018-07-13T02:28:19.909Z,15.91
2018-07-13T02:29:19.927Z,15.89
2018-07-13T02:30:19.951Z,15.86
2018-07-13T02:31:19.971Z,15.86
2018-07-13T02:32:19.989Z,15.81
2018-07-13T02:33:20.009Z,15.88
2018-07-13T02:34:20.027Z,15.88
2018-07-13T02:35:20.047Z,15.81
2018-07-13T02:36:20.088Z,15.84
2018-07-13T02:37:20.089Z,15.75
2018-07-13T02:38:20.122Z,15.78
2018-07-13T02:39:20.128Z,15.77
2018-07-13T02:40:20.157Z,15.78
2018-07-13T02:41:20.171Z,15.71
2018-07-13T02:42:20.191Z,15.74
2018-07-13T02:43:20.211Z,15.74
2018-07-13T02:44:20.229Z,15.73
2018-07-13T02:45:20.251Z,15.75
2018-07-13T02:46:20.269Z,15.73
2018-07-13T02:47:20.291Z,15.81
2018-07-13T02:48:20.309Z,15.70
2018-07-13T02:49:20.334Z,15.74
2018-07-13T02:50:20.352Z,15.73
2018-07-13T02:51:20.372Z,15.73
2018-07-13T02:52:20.392Z,15.75
2018-07-13T02:53:20.409Z,15.74
2018-07-13T02:54:20.430Z,15.75
2018-07-13T02:55:20.451Z,15.68
2018-07-13T02:56:20.470Z,15.63
2018-07-13T02:57:20.497Z,15.71
2018-07-13T02:58:20.509Z,15.71
2018-07-13T02:59:20.536Z,15.68
2018-07-13T03:00:20.550Z,15.71
2018-07-13T03:01:20.571Z,15.68
2018-07-13T03:02:20.590Z,15.71
2018-07-13T03:03:20.612Z,15.75
2018-07-13T03:04:20.631Z,15.77
2018-07-13T03:05:20.652Z,15.78
2018-07-13T03:06:20.671Z,15.77
2018-07-13T03:07:20.697Z,15.73
2018-07-13T03:08:20.711Z,15.73
2018-07-13T03:09:20.731Z,15.77
2018-07-13T03:10:20.754Z,15.81
2018-07-13T03:11:20.774Z,15.80
2018-07-13T03:12:20.791Z,15.77
2018-07-13T03:13:20.813Z,15.75
2018-07-13T03:14:20.834Z,15.73
2018-07-13T03:15:20.853Z,15.68
2018-07-13T03:16:20.872Z,15.70
2018-07-13T03:17:20.898Z,15.75
2018-07-13T03:18:20.914Z,15.75
2018-07-13T03:19:20.933Z,15.78
2018-07-13T03:20:20.956Z,15.80
2018-07-13T03:21:20.971Z,15.74
2018-07-13T03:22:20.998Z,15.74
2018-07-13T03:23:21.012Z,15.74
2018-07-13T03:24:21.034Z,15.70
2018-07-13T03:25:21.051Z,15.67
2018-07-13T03:26:21.074Z,15.75
2018-07-13T03:27:21.097Z,15.75
2018-07-13T03:28:21.111Z,15.78
2018-07-13T03:29:21.133Z,15.75
2018-07-13T03:30:21.151Z,15.74
2018-07-13T03:31:21.174Z,15.77
2018-07-13T03:32:21.194Z,15.80
2018-07-13T03:33:21.213Z,15.75
2018-07-13T03:34:21.235Z,15.74
2018-07-13T03:35:21.254Z,15.81
2018-07-13T03:36:21.274Z,15.81
2018-07-13T03:37:21.295Z,15.81
2018-07-13T03:38:21.317Z,15.73
2018-07-13T03:39:21.332Z,15.68
2018-07-13T03:40:21.352Z,15.70
2018-07-13T03:41:21.374Z,15.67
2018-07-13T03:42:21.396Z,15.73
2018-07-13T03:43:21.412Z,15.70
2018-07-13T03:44:21.435Z,15.73
2018-07-13T03:45:21.455Z,15.81
2018-07-13T03:46:21.478Z,15.74
2018-07-13T03:47:21.495Z,15.77
2018-07-13T03:48:21.529Z,15.77
2018-07-13T03:49:21.534Z,15.75
2018-07-13T03:50:21.554Z,15.63
2018-07-13T03:51:21.576Z,15.65
2018-07-13T03:52:21.593Z,15.63
2018-07-13T03:53:21.614Z,15.68
2018-07-13T03:54:21.634Z,15.71
2018-07-13T03:55:21.655Z,15.70
2018-07-13T03:56:21.673Z,15.70
2018-07-13T03:57:21.696Z,15.73
2018-07-13T03:58:21.715Z,15.67
2018-07-13T03:59:21.734Z,15.65
2018-07-13T04:00:21.758Z,15.65
2018-07-13T04:01:21.776Z,15.67
2018-07-13T04:02:21.792Z,15.71
2018-07-13T04:03:21.813Z,15.68
2018-07-13T04:04:21.833Z,15.70
2018-07-13T04:05:21.852Z,15.70
2018-07-13T04:06:21.923Z,15.56
2018-07-13T04:07:21.895Z,15.70
2018-07-13T04:08:21.913Z,15.70
2018-07-13T04:09:21.934Z,15.68
2018-07-13T04:10:21.955Z,15.70
2018-07-13T04:11:21.975Z,15.70
2018-07-13T04:12:21.993Z,15.68
2018-07-13T04:13:22.016Z,15.68
2018-07-13T04:14:22.033Z,15.74
2018-07-13T04:15:22.055Z,15.73
2018-07-13T04:16:22.075Z,15.75
2018-07-13T04:17:22.093Z,15.77
2018-07-13T04:18:22.113Z,15.77
2018-07-13T04:19:22.138Z,15.81
2018-07-13T04:20:22.159Z,15.81
2018-07-13T04:21:22.173Z,15.86
2018-07-13T04:22:22.193Z,15.81
2018-07-13T04:23:22.213Z,15.86
2018-07-13T04:24:22.233Z,15.86
2018-07-13T04:25:22.255Z,15.89
2018-07-13T04:26:22.273Z,15.89
2018-07-13T04:27:22.296Z,15.84
2018-07-13T04:28:22.316Z,15.91
2018-07-13T04:29:22.335Z,15.92
2018-07-13T04:30:22.357Z,15.95
2018-07-13T04:31:22.376Z,15.95
2018-07-13T04:32:22.395Z,15.93
2018-07-13T04:33:22.415Z,15.93
2018-07-13T04:34:22.532Z,15.98
2018-07-13T04:35:22.456Z,15.91
2018-07-13T04:36:22.474Z,15.93
2018-07-13T04:37:22.493Z,15.95
2018-07-13T04:38:22.515Z,15.89
2018-07-13T04:39:22.534Z,15.91
2018-07-13T04:40:22.555Z,15.93
2018-07-13T04:41:22.576Z,15.96
2018-07-13T04:42:22.596Z,15.95
2018-07-13T04:43:22.617Z,16.02
2018-07-13T04:44:22.635Z,15.99
2018-07-13T04:45:22.654Z,16.04
2018-07-13T04:46:22.678Z,15.93
2018-07-13T04:47:22.696Z,15.98
2018-07-13T04:48:22.717Z,16.02
2018-07-13T04:49:22.735Z,16.10
2018-07-13T04:50:22.759Z,16.04
2018-07-13T04:51:22.778Z,16.07
2018-07-13T04:52:22.801Z,16.18
2018-07-13T04:53:22.817Z,16.08
2018-07-13T04:54:22.836Z,16.07
2018-07-13T04:55:22.858Z,16.13
2018-07-13T04:56:22.877Z,16.14
2018-07-13T04:57:22.897Z,16.18
2018-07-13T04:58:22.919Z,16.25
2018-07-13T04:59:22.940Z,16.36
2018-07-13T05:00:22.958Z,16.26
2018-07-13T05:01:22.978Z,16.36
2018-07-13T05:02:23.000Z,16.37
2018-07-13T05:03:23.021Z,16.36
2018-07-13T05:04:23.042Z,16.40
2018-07-13T05:05:23.058Z,16.42
2018-07-13T05:06:23.080Z,16.47
2018-07-13T05:07:23.102Z,16.48
2018-07-13T05:08:23.122Z,16.49
2018-07-13T05:09:23.140Z,16.51
2018-07-13T05:10:23.160Z,16.52
2018-07-13T05:11:23.181Z,16.52
2018-07-13T05:12:23.201Z,16.54
2018-07-13T05:13:23.223Z,16.58
2018-07-13T05:14:23.243Z,16.65
2018-07-13T05:15:23.267Z,16.66
2018-07-13T05:16:23.283Z,16.69
2018-07-13T05:17:23.374Z,16.81
2018-07-13T05:18:23.325Z,16.76
2018-07-13T05:19:23.345Z,16.77
2018-07-13T05:20:23.367Z,16.81
2018-07-13T05:21:23.469Z,16.84
2018-07-13T05:22:23.404Z,16.85
2018-07-13T05:23:23.425Z,16.72
2018-07-13T05:24:23.446Z,16.66
2018-07-13T05:25:23.468Z,16.65
2018-07-13T05:26:23.488Z,16.77
2018-07-13T05:27:23.509Z,16.80
2018-07-13T05:28:23.529Z,16.76
2018-07-13T05:29:23.547Z,16.74
2018-07-13T05:30:23.570Z,16.69
2018-07-13T05:31:23.591Z,16.66
2018-07-13T05:32:23.614Z,16.65
2018-07-13T05:33:23.632Z,16.69
2018-07-13T05:34:23.651Z,16.63
2018-07-13T05:35:23.676Z,16.65
2018-07-13T05:36:23.694Z,16.73
2018-07-13T05:37:23.712Z,16.57
2018-07-13T05:38:23.767Z,16.59
2018-07-13T05:39:23.753Z,16.63
2018-07-13T05:40:23.774Z,16.66
2018-07-13T05:41:23.796Z,16.59
2018-07-13T05:42:23.815Z,16.59
2018-07-13T05:43:23.839Z,16.54
2018-07-13T05:44:23.856Z,16.57
2018-07-13T05:45:23.878Z,16.63
2018-07-13T05:46:23.897Z,16.52
2018-07-13T05:47:23.922Z,16.47
2018-07-13T05:48:23.939Z,16.42
2018-07-13T05:49:23.958Z,16.47
2018-07-13T05:50:23.981Z,16.51
2018-07-13T05:51:24.003Z,16.49
2018-07-13T05:52:24.021Z,16.49
2018-07-13T05:53:24.041Z,16.52
2018-07-13T05:54:24.068Z,16.42
2018-07-13T05:55:24.081Z,16.47
2018-07-13T05:56:24.105Z,16.47
2018-07-13T05:57:24.123Z,16.54
2018-07-13T05:58:24.149Z,16.51
2018-07-13T05:59:24.163Z,16.54
2018-07-13T06:00:24.184Z,16.48
2018-07-13T06:01:24.206Z,16.57
2018-07-13T06:02:24.288Z,16.63
2018-07-13T06:03:24.245Z,16.77
2018-07-13T06:04:24.269Z,16.73
2018-07-13T06:05:24.288Z,16.77
2018-07-13T06:06:24.311Z,16.74
2018-07-13T06:07:24.332Z,17.00
2018-07-13T06:08:24.349Z,16.95
2018-07-13T06:09:24.368Z,16.91
2018-07-13T06:10:24.391Z,16.81
2018-07-13T06:11:24.412Z,16.90
2018-07-13T06:12:24.431Z,16.95
2018-07-13T06:13:24.453Z,16.92
2018-07-13T06:14:24.471Z,16.97
2018-07-13T06:15:24.495Z,16.90
2018-07-13T06:16:24.513Z,16.81
2018-07-13T06:17:24.536Z,16.72
2018-07-13T06:18:24.556Z,16.74
2018-07-13T06:19:24.578Z,16.81
2018-07-13T06:20:24.596Z,16.91
2018-07-13T06:21:24.616Z,16.88
2018-07-13T06:22:24.639Z,16.91
2018-07-13T06:23:24.660Z,16.92
2018-07-13T06:24:24.681Z,16.90
2018-07-13T06:25:24.699Z,16.95
2018-07-13T06:26:24.723Z,16.82
2018-07-13T06:27:24.741Z,16.85
2018-07-13T06:28:24.764Z,16.82
2018-07-13T06:29:24.781Z,16.74
2018-07-13T06:30:24.801Z,16.92
2018-07-13T06:31:24.865Z,16.99
2018-07-13T06:32:24.844Z,16.95
2018-07-13T06:33:24.867Z,16.91
2018-07-13T06:34:24.887Z,16.97
2018-07-13T06:35:24.908Z,16.99
2018-07-13T06:36:24.927Z,17.03
2018-07-13T06:37:24.946Z,17.10
2018-07-13T06:38:24.967Z,17.13
2018-07-13T06:39:24.995Z,17.21
2018-07-13T06:40:25.011Z,17.30
2018-07-13T06:41:25.029Z,17.24
2018-07-13T06:42:25.053Z,17.32
2018-07-13T06:43:25.073Z,17.35
2018-07-13T06:44:25.095Z,17.39
2018-07-13T06:45:25.116Z,17.32
2018-07-13T06:46:25.133Z,17.45
2018-07-13T06:47:25.157Z,17.42
2018-07-13T06:48:25.175Z,17.57
2018-07-13T06:49:25.198Z,18.01
2018-07-13T06:50:25.219Z,18.05
2018-07-13T06:51:25.240Z,17.87
2018-07-13T06:52:25.258Z,17.80
2018-07-13T06:53:25.280Z,17.90
2018-07-13T06:54:25.319Z,18.17
2018-07-13T06:55:25.322Z,18.17
2018-07-13T06:56:25.378Z,18.03
2018-07-13T06:57:25.363Z,18.02
2018-07-13T06:58:25.386Z,17.90
2018-07-13T06:59:25.405Z,17.87
2018-07-13T07:00:25.429Z,17.83
2018-07-13T07:01:25.447Z,17.77
2018-07-13T07:02:25.468Z,17.76
2018-07-13T07:03:25.492Z,17.60
2018-07-13T07:04:25.515Z,17.68
2018-07-13T07:05:25.534Z,17.69
2018-07-13T07:06:25.553Z,17.80
2018-07-13T07:07:25.577Z,17.84
2018-07-13T07:08:25.596Z,17.86
2018-07-13T07:09:25.618Z,18.01
2018-07-13T07:10:25.638Z,17.84
2018-07-13T07:11:25.659Z,17.83
2018-07-13T07:12:25.682Z,17.80
2018-07-13T07:13:25.704Z,17.79
2018-07-13T07:14:25.722Z,17.77
2018-07-13T07:15:25.746Z,17.81
2018-07-13T07:16:25.767Z,17.74
2018-07-13T07:17:25.788Z,17.86
2018-07-13T07:18:25.807Z,17.87
2018-07-13T07:19:25.830Z,17.95
2018-07-13T07:20:25.850Z,17.92
2018-07-13T07:21:25.870Z,17.95
2018-07-13T07:22:25.894Z,17.99
2018-07-13T07:23:25.917Z,17.98
2018-07-13T07:24:26.017Z,17.94
2018-07-13T07:25:25.959Z,17.98
2018-07-13T07:26:25.979Z,17.99
2018-07-13T07:27:25.999Z,17.92
2018-07-13T07:28:26.026Z,17.79
2018-07-13T07:29:26.044Z,17.71
2018-07-13T07:30:26.065Z,17.80
2018-07-13T07:31:26.086Z,17.86
2018-07-13T07:32:26.107Z,17.98
2018-07-13T07:33:26.128Z,18.03
2018-07-13T07:34:26.148Z,18.06
2018-07-13T07:35:26.168Z,18.16
2018-07-13T07:36:26.192Z,18.13
2018-07-13T07:37:26.212Z,18.02
2018-07-13T07:38:26.291Z,18.13
2018-07-13T07:39:26.254Z,18.26
2018-07-13T07:40:26.278Z,18.32
2018-07-13T07:41:26.296Z,18.38
2018-07-13T07:42:26.321Z,18.35
2018-07-13T07:43:26.341Z,18.59
2018-07-13T07:44:26.370Z,18.50
2018-07-13T07:45:26.382Z,18.39
2018-07-13T07:46:26.419Z,18.35
2018-07-13T07:47:26.428Z,18.26
2018-07-13T07:48:26.450Z,18.27
2018-07-13T07:49:26.476Z,18.44
2018-07-13T07:50:26.493Z,18.47
2018-07-13T07:51:26.514Z,18.60
2018-07-13T07:52:26.535Z,18.60
2018-07-13T07:53:26.558Z,18.60
2018-07-13T07:54:26.581Z,18.66
2018-07-13T07:55:26.600Z,19.15
2018-07-13T07:56:26.622Z,19.57
2018-07-13T07:57:26.656Z,19.52
2018-07-13T07:58:26.666Z,19.83
2018-07-13T07:59:26.693Z,20.58
2018-07-13T08:00:26.712Z,20.12
2018-07-13T08:01:26.734Z,20.41
2018-07-13T08:02:26.758Z,21.13
2018-07-13T08:03:26.780Z,21.64
2018-07-13T08:04:26.799Z,21.40
2018-07-13T08:05:26.823Z,21.38
2018-07-13T08:06:27.085Z,20.60
2018-07-13T08:07:26.922Z,20.20
2018-07-13T08:08:26.892Z,21.01
2018-07-13T08:09:26.914Z,21.86
2018-07-13T08:10:26.939Z,22.26
2018-07-13T08:11:26.963Z,22.45
2018-07-13T08:12:26.987Z,22.69
2018-07-13T08:13:27.084Z,22.66
2018-07-13T08:14:27.089Z,22.57
2018-07-13T08:15:27.056Z,22.76
2018-07-13T08:16:27.080Z,22.91
2018-07-13T08:17:27.103Z,22.89
2018-07-13T08:18:27.130Z,23.16
2018-07-13T08:19:27.153Z,23.66
2018-07-13T08:20:27.178Z,23.94
2018-07-13T08:21:27.205Z,23.92
2018-07-13T08:22:27.229Z,23.97
2018-07-13T08:23:27.254Z,24.11
2018-07-13T08:24:27.283Z,24.48
2018-07-13T08:25:27.308Z,24.30
2018-07-13T08:26:27.333Z,24.48
2018-07-13T08:27:27.359Z,24.49
2018-07-13T08:28:27.385Z,24.15
2018-07-13T08:29:27.412Z,24.04
2018-07-13T08:30:27.439Z,23.66
2018-07-13T08:31:27.468Z,23.94
2018-07-13T08:32:27.494Z,23.97
2018-07-13T08:33:27.523Z,23.93
2018-07-13T08:34:27.550Z,23.89
2018-07-13T08:35:27.577Z,23.93
2018-07-13T08:36:27.603Z,24.32
2018-07-13T08:37:27.637Z,24.59
2018-07-13T08:38:27.658Z,24.97
2018-07-13T08:39:27.688Z,25.08
2018-07-13T08:40:27.717Z,25.15
2018-07-13T08:41:27.744Z,25.33
2018-07-13T08:42:27.770Z,25.56
2018-07-13T08:43:27.798Z,25.54
2018-07-13T08:44:27.830Z,25.27
2018-07-13T08:45:27.859Z,25.37
2018-07-13T08:46:27.886Z,25.33
2018-07-13T08:47:27.917Z,25.57
2018-07-13T08:48:27.946Z,25.79
2018-07-13T08:49:27.970Z,26.01
2018-07-13T08:50:28.093Z,26.03
2018-07-13T08:51:28.048Z,25.96
2018-07-13T08:52:28.060Z,26.06
2018-07-13T08:53:28.087Z,25.94
2018-07-13T08:54:28.151Z,25.97
2018-07-13T08:55:28.149Z,25.76
2018-07-13T08:56:28.179Z,25.74
2018-07-13T08:57:28.205Z,25.71
2018-07-13T08:58:28.234Z,25.79
2018-07-13T08:59:28.264Z,26.03
2018-07-13T09:00:28.297Z,26.11
2018-07-13T09:01:28.325Z,25.97
2018-07-13T09:02:28.355Z,25.76
2018-07-13T09:03:28.386Z,26.06
2018-07-13T09:04:28.428Z,26.26
2018-07-13T09:05:28.442Z,26.44
2018-07-13T09:06:28.514Z,26.61
2018-07-13T09:07:28.545Z,26.15
2018-07-13T09:08:28.534Z,26.53
2018-07-13T09:09:28.565Z,26.30
2018-07-13T09:10:28.593Z,26.42
2018-07-13T09:11:28.625Z,26.64
2018-07-13T09:12:28.652Z,26.52
2018-07-13T09:13:28.681Z,26.69
2018-07-13T09:14:28.714Z,26.99
2018-07-13T09:15:28.745Z,27.23
2018-07-13T09:16:28.775Z,27.21
2018-07-13T09:17:28.803Z,26.72
2018-07-13T09:18:28.836Z,27.12
2018-07-13T09:19:28.863Z,27.23
2018-07-13T09:20:28.896Z,27.49
2018-07-13T09:21:28.923Z,27.41
2018-07-13T09:22:28.955Z,27.52
2018-07-13T09:23:28.985Z,27.36
2018-07-13T09:24:29.013Z,27.41
2018-07-13T09:25:29.046Z,27.51
2018-07-13T09:26:29.074Z,27.41
2018-07-13T09:27:29.108Z,27.24
2018-07-13T09:28:29.137Z,27.53
2018-07-13T09:29:29.165Z,27.41
2018-07-13T09:30:29.199Z,27.38
2018-07-13T09:31:29.227Z,27.71
2018-07-13T09:32:29.260Z,27.38
2018-07-13T09:33:29.308Z,27.23
2018-07-13T09:34:29.319Z,27.62
2018-07-13T09:35:29.352Z,27.61
2018-07-13T09:36:29.382Z,27.59
2018-07-13T09:37:29.409Z,27.71
2018-07-13T09:38:29.533Z,27.45
2018-07-13T09:39:29.474Z,27.48
2018-07-13T09:40:29.507Z,27.69
2018-07-13T09:41:29.532Z,27.28
2018-07-13T09:42:29.565Z,27.38
2018-07-13T09:43:29.614Z,27.49
2018-07-13T09:44:29.629Z,27.71
2018-07-13T09:45:29.657Z,28.11
2018-07-13T09:46:29.731Z,28.16
2018-07-13T09:47:29.716Z,27.99
2018-07-13T09:48:29.750Z,28.14
2018-07-13T09:49:29.779Z,27.93
2018-07-13T09:50:29.820Z,27.59
2018-07-13T09:51:29.839Z,27.49
2018-07-13T09:52:29.873Z,27.69
2018-07-13T09:53:29.900Z,28.11
2018-07-13T09:54:29.931Z,28.42
2018-07-13T09:55:29.962Z,28.57
2018-07-13T09:56:29.993Z,28.76
2018-07-13T09:57:30.027Z,29.06
2018-07-13T09:58:30.058Z,29.11
2018-07-13T09:59:30.085Z,29.10
2018-07-13T10:00:30.133Z,29.14
2018-07-13T10:01:30.149Z,29.01
2018-07-13T10:02:30.180Z,28.70
2018-07-13T10:03:30.209Z,29.05
2018-07-13T10:04:30.243Z,29.33
2018-07-13T10:05:30.274Z,29.52
2018-07-13T10:06:30.305Z,28.82
2018-07-13T10:07:30.334Z,28.65
2018-07-13T10:08:30.364Z,28.94
2018-07-13T10:09:30.395Z,29.54
2018-07-13T10:10:30.426Z,29.88
2018-07-13T10:11:30.458Z,29.63
2018-07-13T10:12:30.494Z,29.69
2018-07-13T10:13:30.575Z,29.52
2018-07-13T10:14:30.553Z,29.03
2018-07-13T10:15:30.587Z,28.28
2018-07-13T10:16:30.614Z,28.46
2018-07-13T10:17:30.647Z,28.48
2018-07-13T10:18:30.675Z,28.54
2018-07-13T10:19:30.710Z,28.68
2018-07-13T10:20:30.741Z,28.70
2018-07-13T10:21:30.772Z,29.10
2018-07-13T10:22:30.803Z,29.23
2018-07-13T10:23:30.831Z,29.47
2018-07-13T10:24:30.863Z,29.69
2018-07-13T10:25:30.897Z,29.81
2018-07-13T10:26:30.925Z,29.73
2018-07-13T10:27:30.955Z,29.77
2018-07-13T10:28:30.987Z,29.48
2018-07-13T10:29:31.021Z,29.77
2018-07-13T10:30:31.052Z,29.95
2018-07-13T10:31:31.088Z,30.04
2018-07-13T10:32:31.117Z,29.38
2018-07-13T10:33:31.144Z,29.61
2018-07-13T10:34:31.176Z,29.98
2018-07-13T10:35:31.306Z,30.14
2018-07-13T10:36:31.240Z,29.92
2018-07-13T10:37:31.269Z,29.65
2018-07-13T10:38:31.301Z,29.65
2018-07-13T10:39:31.333Z,30.07
2018-07-13T10:40:31.367Z,29.85
2018-07-13T10:41:31.398Z,29.94
2018-07-13T10:42:31.430Z,29.70
2018-07-13T10:43:31.462Z,29.55
2018-07-13T10:44:31.493Z,29.70
2018-07-13T10:45:31.523Z,29.98
2018-07-13T10:46:31.553Z,30.06
2018-07-13T10:47:31.585Z,30.16
2018-07-13T10:48:31.617Z,30.29
2018-07-13T10:49:31.651Z,30.32
2018-07-13T10:50:31.681Z,30.25
2018-07-13T10:51:31.720Z,30.57
2018-07-13T10:52:31.743Z,30.86
2018-07-13T10:53:31.777Z,31.25
2018-07-13T10:54:31.807Z,30.99
2018-07-13T10:55:31.840Z,30.88
2018-07-13T10:56:31.870Z,30.70
2018-07-13T10:57:31.904Z,30.25
2018-07-13T10:58:31.965Z,30.19
2018-07-13T10:59:31.964Z,30.52
2018-07-13T11:00:31.997Z,30.56
2018-07-13T11:01:32.030Z,30.35
2018-07-13T11:02:32.059Z,30.64
2018-07-13T11:03:32.094Z,30.81
2018-07-13T11:04:32.123Z,30.89
2018-07-13T11:05:32.155Z,30.96
2018-07-13T11:06:32.193Z,31.16
2018-07-13T11:07:32.220Z,31.55
2018-07-13T11:08:32.255Z,31.21
2018-07-13T11:09:32.284Z,31.01
2018-07-13T11:10:32.313Z,30.93
2018-07-13T11:11:32.346Z,30.64
2018-07-13T11:12:32.376Z,30.35
2018-07-13T11:13:32.435Z,30.31
2018-07-13T11:14:32.446Z,30.13
2018-07-13T11:15:32.471Z,30.06
2018-07-13T11:16:32.506Z,30.26
2018-07-13T11:17:32.536Z,30.25
2018-07-13T11:18:32.566Z,30.47
2018-07-13T11:19:32.600Z,30.60
2018-07-13T11:20:32.633Z,30.93
2018-07-13T11:21:32.661Z,30.86
2018-07-13T11:22:32.693Z,30.86
2018-07-13T11:23:32.725Z,30.79
2018-07-13T11:24:32.761Z,30.86
2018-07-13T11:25:32.791Z,30.99
2018-07-13T11:26:32.823Z,30.86
2018-07-13T11:27:32.854Z,30.99
2018-07-13T11:28:32.888Z,31.06
2018-07-13T11:29:32.917Z,30.82
2018-07-13T11:30:32.947Z,30.85
2018-07-13T11:31:32.982Z,30.60
2018-07-13T11:32:33.011Z,30.62
2018-07-13T11:33:33.044Z,30.34
2018-07-13T11:34:33.075Z,30.25
2018-07-13T11:35:33.106Z,30.03
2018-07-13T11:36:33.143Z,30.28
2018-07-13T11:37:33.170Z,30.18
2018-07-13T11:38:33.209Z,30.09
2018-07-13T11:39:33.233Z,30.51
2018-07-13T11:40:33.268Z,30.78
2018-07-13T11:41:33.299Z,30.70
2018-07-13T11:42:33.328Z,30.94
2018-07-13T11:43:33.362Z,30.81
2018-07-13T11:44:33.397Z,31.03
2018-07-13T11:45:33.425Z,31.07
2018-07-13T11:46:33.456Z,31.28
2018-07-13T11:47:33.485Z,31.52
2018-07-13T11:48:33.520Z,31.62
2018-07-13T11:49:33.549Z,31.90
2018-07-13T11:50:33.580Z,31.90
2018-07-13T11:51:33.615Z,31.59
2018-07-13T11:52:33.647Z,31.26
2018-07-13T11:53:33.679Z,31.26
2018-07-13T11:54:33.710Z,31.18
2018-07-13T11:55:33.740Z,30.96
2018-07-13T11:56:33.776Z,30.73
2018-07-13T11:57:33.802Z,30.60
2018-07-13T11:58:33.836Z,30.52
2018-07-13T11:59:33.869Z,30.79
2018-07-13T12:00:33.964Z,30.29
2018-07-13T12:01:33.933Z,30.31
2018-07-13T12:02:33.963Z,29.77
2018-07-13T12:03:33.992Z,29.72
2018-07-13T12:04:34.027Z,30.26
2018-07-13T12:05:34.055Z,30.48
2018-07-13T12:06:34.092Z,30.70
2018-07-13T12:07:34.223Z,30.52
2018-07-13T12:08:34.155Z,30.24
2018-07-13T12:09:34.183Z,30.56
2018-07-13T12:10:34.214Z,30.70
2018-07-13T12:11:34.246Z,31.18
2018-07-13T12:12:34.346Z,31.19
2018-07-13T12:13:34.305Z,31.12
2018-07-13T12:14:34.338Z,31.10
2018-07-13T12:15:34.368Z,31.34
2018-07-13T12:16:34.453Z,31.13
2018-07-13T12:17:34.521Z,31.40
2018-07-13T12:18:34.461Z,31.22
2018-07-13T12:19:34.493Z,31.30
2018-07-13T12:20:34.527Z,31.25
2018-07-13T12:21:34.554Z,31.38
2018-07-13T12:22:34.585Z,31.68
2018-07-13T12:23:34.620Z,31.65
2018-07-13T12:24:34.648Z,31.88
2018-07-13T12:25:34.680Z,31.88
2018-07-13T12:26:34.713Z,31.70
2018-07-13T12:27:34.741Z,30.93
2018-07-13T12:28:34.774Z,30.52
2018-07-13T12:29:34.806Z,30.14
2018-07-13T12:30:34.837Z,30.54
2018-07-13T12:31:34.869Z,30.81
2018-07-13T12:32:34.973Z,31.16
2018-07-13T12:33:34.928Z,30.94
2018-07-13T12:34:34.959Z,31.16
2018-07-13T12:35:34.989Z,30.59
2018-07-13T12:36:35.018Z,30.62
2018-07-13T12:37:35.047Z,30.47
2018-07-13T12:38:35.077Z,30.10
2018-07-13T12:39:35.140Z,30.04
2018-07-13T12:40:35.140Z,29.97
2018-07-13T12:41:35.168Z,30.13
2018-07-13T12:42:35.199Z,30.34
2018-07-13T12:43:35.228Z,30.45
2018-07-13T12:44:35.258Z,30.25
2018-07-13T12:45:35.290Z,30.11
2018-07-13T12:46:35.321Z,30.04
2018-07-13T12:47:35.357Z,30.02
2018-07-13T12:48:35.380Z,29.79
2018-07-13T12:49:35.408Z,29.89
2018-07-13T12:50:35.439Z,29.54
2018-07-13T12:51:35.467Z,29.35
2018-07-13T12:52:35.494Z,29.36